首页
METAR-TAF:

METAR-TAF

机场 :

梅赫拉巴德國際機場

德黑兰, 伊朗

纬度: 35-41N, 经度: 051-21E, 海拔: 1204米

当前天气观测

该预报发布于25分钟前的08:30 UTC
风速20节,风向西
温度 13°C
湿度 38%
气压 1014 hPa
能见度10公里或以上
少量云层高于3000英尺
少量云层高于3500英尺, 积雨云.

METAR: OIII 230830Z 27020KT 9999 FEW030 FEW035CB 13/M01 Q1013 A2993

时间: 13:25 (08:55 UTC)

预报

该预报发布于3小时和25分钟前的05:30 UTC
预报有效从23日的 06点(UTC)到 24日的 12点(UTC)
风速16节,风向西
能見度: 7000
短暂存在
从 23日的 08点(UTC)到 23日的 15点(UTC)
风速20节,风向西转西北,有时为28节阵风
几率 40% :
短暂存在
从 23日的 12点(UTC)到 23日的 15点(UTC)
能見度: 5000
少量云层高于3000英尺, 积雨云.
散云层高于3500英尺
多云层高于10000英尺
成为
从 23日的 21点(UTC)到 23日的 23点(UTC)
风速10节,风向北转西北

TAF: OIII 230530Z 2306/2412 27016KT 7000 NSC TEMPO 2308/2315 30020G28KT PROB40 TEMPO 2312/2315 5000 TS/RA FEW030CB SCT035 BKN100 BECMG 2321/2323 33010KT

超过4000个机场的气象观测和天气预报(METAR&TAF报告)。

可查询的气象台以黄色和红色小点在地图上表示。

将鼠标移到小点上方,可查看气象台名称。

然后点击查看天气观测和预报。

如需切换地图:点击带黑十字的绿色按钮放大地图;点击带横线的绿色按钮缩小地图;或者点击绿色箭头查看邻近地区的地图。


METAR-TAF: